Terminal Aerodrome Forecast
Issued by NWS

Home | Current Version | Previous Version | Text Only | Print | Product List | Glossary On
Versions: 1 2 3 4 5 6 7 8 9 10 11 12 13 14 15 16 17 18 19 20 21 22 23 24 25 26
000
FTUS41 KPHI 231100 CCA
TAFMIV
TAF COR
KMIV 231132Z 2312/2412 00000KT P6SM BKN007
     FM231300 22006KT P6SM FEW050
     FM240000 21003KT P6SM SCT050 BKN250 PROB30 2402/2405 4SM TSRA
      BR BKN050CB
     FM240900 32003KT 4SM BR VCSH BKN060=

USA.gov is the U.S. government's official web portal to all federal, state and local government web resources and services.